KOVS

Details ICAO KOVS
Name Boscobel
Region United States
Timezone America/Chicago (UTC-6.0)
Plans Departing 0
Arriving 1
Stats Elevation 672 ft / 205 m (AMSL)
Location 43.160392° -90.674634°
Runways 2
Magnetic Variation 1.684° W
Sunrise 2017-12-17 13:30:31 UTC / 2017-12-17 07:30:31 Local
Sunset 2017-12-17 22:30:06 UTC / 2017-12-17 16:30:06 Local
Advertisement - Login to hide

Runways

ID Width Length Bearing (true) Bearing (mag) Surface Threshold Offset Overrun Length
02 58 ft / 18 m 3,663 ft / 1,117 m 16.84° 18.52° Asphalt 0 ft / 0 m 0 ft / 0 m
07 75 ft / 23 m 4,990 ft / 1,521 m 66.99° 68.67° Asphalt 0 ft / 0 m 0 ft / 0 m
20 58 ft / 18 m 3,663 ft / 1,117 m 196.84° 198.52° Asphalt 0 ft / 0 m 0 ft / 0 m
25 75 ft / 23 m 4,990 ft / 1,521 m 247.00° 248.68° Asphalt 0 ft / 0 m 0 ft / 0 m

Map

Weather


0- 5 10 15 20 25 30 35+ Temperature / ° C

Clouds and Precipitation
Forecast for 2017-12-17 06:00 UTC. Updated an hour ago

Ground ~20,000 ft ~40,000 ft Winds

METAR

KOVS 170553Z AUTO 04004KT 7SM OVC009 00/M02 A3008 RMK AO2 SLP194 T00001022 10000 21006 400561033 58002

TAF

Not found

Frequencies

Recorded 126.77 MHz ASOS
Unicom 122.80 MHz CTAF/UNICOM
Warning: Do not use this data for real-world aviation or navigation. No guarantee of current accuracy is given.